createdAt,value
2022-09-10T00:01:30.017Z,106.85
2022-09-10T00:03:56.851Z,106.03
2022-09-10T00:06:27.867Z,108.30
2022-09-10T00:08:57.727Z,100.55
2022-09-10T00:11:31.121Z,98.63
2022-09-10T00:13:59.749Z,101.47
2022-09-10T00:16:27.650Z,103.20
2022-09-10T00:18:54.274Z,100.68
2022-09-10T00:21:21.710Z,108.63
2022-09-10T00:23:48.786Z,104.07
2022-09-10T00:26:27.491Z,111.93
2022-09-10T00:28:56.351Z,106.13
2022-09-10T00:31:24.077Z,101.43
2022-09-10T00:33:51.307Z,113.47
2022-09-10T00:36:24.176Z,111.18
2022-09-10T00:38:53.347Z,106.10
2022-09-10T00:41:22.481Z,110.45
2022-09-10T00:44:00.612Z,102.60
2022-09-10T00:46:33.550Z,103.95
2022-09-10T00:49:03.714Z,106.32
2022-09-10T00:51:33.590Z,104.53
2022-09-10T00:54:01.004Z,104.10
2022-09-10T00:56:28.905Z,100.20
2022-09-10T00:58:56.043Z,95.88
2022-09-10T01:01:23.191Z,100.65
2022-09-10T01:03:50.696Z,102.70
2022-09-10T01:06:18.418Z,95.43
2022-09-10T01:08:44.923Z,98.57
2022-09-10T01:11:34.989Z,100.18
2022-09-10T01:14:38.169Z,98.75
2022-09-10T01:17:34.395Z,92.28
2022-09-10T01:20:35.058Z,101.88
2022-09-10T01:23:19.704Z,85.93
2022-09-10T01:25:46.114Z,82.57
2022-09-10T01:28:25.414Z,93.18
2022-09-10T01:30:59.299Z,92.03
2022-09-10T01:33:30.950Z,88.30
2022-09-10T01:36:02.245Z,85.07
2022-09-10T01:38:32.486Z,79.25
2022-09-10T01:40:59.454Z,74.90
2022-09-10T01:43:26.009Z,75.13
2022-09-10T01:45:52.515Z,78.65
2022-09-10T01:48:45.449Z,74.82
2022-09-10T01:51:35.075Z,70.88
2022-09-10T01:54:29.431Z,69.85
2022-09-10T01:57:22.222Z,73.13
2022-09-10T02:00:09.330Z,70.68
2022-09-10T02:02:44.222Z,72.15
2022-09-10T02:05:12.350Z,69.25
2022-09-10T02:07:39.558Z,75.93
2022-09-10T02:10:09.121Z,78.72
2022-09-10T02:12:36.804Z,77.20
2022-09-10T02:15:05.298Z,74.50
2022-09-10T02:17:35.796Z,74.35
2022-09-10T02:20:04.288Z,70.05
2022-09-10T02:22:33.852Z,72.53
2022-09-10T02:25:00.402Z,74.93
2022-09-10T02:27:29.995Z,75.57
2022-09-10T02:29:59.629Z,74.13
2022-09-10T02:32:27.160Z,78.88
2022-09-10T02:34:53.658Z,72.05
2022-09-10T02:37:20.233Z,70.03
2022-09-10T02:39:46.829Z,69.93
2022-09-10T02:42:16.950Z,67.50
2022-09-10T02:44:44.824Z,71.32
2022-09-10T02:47:11.338Z,77.72
2022-09-10T02:49:37.819Z,68.82
2022-09-10T02:52:04.637Z,60.65
2022-09-10T02:54:31.165Z,55.72
2022-09-10T02:56:57.643Z,53.33
2022-09-10T02:59:25.135Z,53.45
2022-09-10T03:01:51.962Z,47.92
2022-09-10T03:04:18.510Z,48.67
2022-09-10T03:06:45.282Z,46.03
2022-09-10T03:09:11.760Z,46.05
2022-09-10T03:11:40.662Z,43.97
2022-09-10T03:14:10.266Z,46.90
2022-09-10T03:16:36.844Z,45.13
2022-09-10T03:19:03.575Z,45.10
2022-09-10T03:21:30.150Z,44.55
2022-09-10T03:23:57.324Z,43.75
2022-09-10T03:26:27.958Z,44.58
2022-09-10T03:28:54.470Z,43.67
2022-09-10T03:31:21.742Z,43.67
2022-09-10T03:33:49.176Z,42.30
2022-09-10T03:36:15.830Z,44.65
2022-09-10T03:38:42.760Z,39.97
2022-09-10T03:41:09.772Z,38.17
2022-09-10T03:43:36.346Z,36.75
2022-09-10T03:46:03.278Z,36.47
2022-09-10T03:48:29.992Z,40.25
2022-09-10T03:50:56.781Z,36.10
2022-09-10T03:53:23.908Z,34.63
2022-09-10T03:55:51.856Z,38.65
2022-09-10T03:58:19.227Z,38.08
2022-09-10T04:00:46.550Z,36.42
2022-09-10T04:03:14.558Z,39.28
2022-09-10T04:05:44.100Z,36.30
2022-09-10T04:08:12.220Z,40.15
2022-09-10T04:10:39.902Z,40.55
2022-09-10T04:13:07.140Z,40.05
2022-09-10T04:15:34.375Z,35.83
2022-09-10T04:18:01.076Z,37.70
2022-09-10T04:20:27.745Z,36.78
2022-09-10T04:22:55.101Z,36.70
2022-09-10T04:25:21.647Z,38.78
2022-09-10T04:27:49.040Z,33.33
2022-09-10T04:30:15.883Z,33.65
2022-09-10T04:32:42.819Z,37.75
2022-09-10T04:35:09.624Z,33.63
2022-09-10T04:37:36.114Z,37.20
2022-09-10T04:40:03.715Z,35.63
2022-09-10T04:42:31.883Z,37.90
2022-09-10T04:44:59.222Z,40.35
2022-09-10T04:47:26.188Z,33.90
2022-09-10T04:49:52.737Z,32.78
2022-09-10T04:52:22.694Z,34.88
2022-09-10T04:54:49.475Z,34.10
2022-09-10T04:57:16.091Z,33.28
2022-09-10T04:59:42.808Z,34.25
2022-09-10T05:02:09.376Z,36.13
2022-09-10T05:04:36.176Z,34.20
2022-09-10T05:07:02.685Z,34.72
2022-09-10T05:09:31.323Z,34.17
2022-09-10T05:11:58.222Z,34.15
2022-09-10T05:14:25.500Z,34.95
2022-09-10T05:16:52.493Z,34.30
2022-09-10T05:19:21.398Z,37.08
2022-09-10T05:21:48.534Z,36.35
2022-09-10T05:24:15.571Z,34.65
2022-09-10T05:26:42.677Z,43.40
2022-09-10T05:29:11.310Z,40.80
2022-09-10T05:31:37.926Z,34.88
2022-09-10T05:34:04.571Z,35.13
2022-09-10T05:36:32.088Z,38.65
2022-09-10T05:39:00.288Z,37.65
2022-09-10T05:41:28.144Z,37.55
2022-09-10T05:43:55.056Z,36.13
2022-09-10T05:46:22.347Z,38.90
2022-09-10T05:48:49.090Z,38.40
2022-09-10T05:51:15.932Z,40.25
2022-09-10T05:53:42.393Z,36.78
2022-09-10T05:56:09.284Z,42.15
2022-09-10T05:58:35.840Z,38.00
2022-09-10T06:01:02.467Z,39.20
2022-09-10T06:03:28.992Z,45.85
2022-09-10T06:05:55.714Z,50.10
2022-09-10T06:08:22.774Z,55.55
2022-09-10T06:10:57.355Z,61.40
2022-09-10T06:13:24.956Z,60.63
2022-09-10T06:15:51.886Z,60.90
2022-09-10T06:18:19.219Z,69.68
2022-09-10T06:20:47.791Z,66.30
2022-09-10T06:23:16.586Z,90.93
2022-09-10T06:25:43.445Z,113.57
2022-09-10T06:28:12.188Z,131.68
2022-09-10T06:30:39.411Z,96.32
2022-09-10T06:33:06.039Z,136.02
2022-09-10T06:35:33.311Z,146.02
2022-09-10T06:37:59.799Z,167.07
2022-09-10T06:40:29.663Z,158.65
2022-09-10T06:42:56.238Z,168.77
2022-09-10T06:45:22.732Z,192.40
2022-09-10T06:48:37.001Z,180.05
2022-09-10T06:50:36.944Z,182.65
2022-09-10T06:53:03.622Z,173.93
2022-09-10T06:55:30.164Z,192.10
2022-09-10T06:57:59.580Z,175.60
2022-09-10T07:00:26.043Z,195.75
2022-09-10T07:02:52.944Z,177.70
2022-09-10T07:05:19.445Z,170.48
2022-09-10T07:07:46.376Z,192.65
2022-09-10T07:10:12.879Z,170.68
2022-09-10T07:12:39.367Z,225.75
2022-09-10T07:15:06.246Z,221.98
2022-09-10T07:17:35.649Z,229.15
2022-09-10T07:20:02.927Z,183.27
2022-09-10T07:22:29.419Z,203.55
2022-09-10T07:24:56.098Z,241.07
2022-09-10T07:27:22.698Z,198.77
2022-09-10T07:29:49.595Z,243.98
2022-09-10T07:32:16.223Z,225.23
2022-09-10T07:34:43.125Z,217.95
2022-09-10T07:37:09.690Z,206.07
2022-09-10T07:39:36.223Z,179.80
2022-09-10T07:42:02.758Z,180.43
2022-09-10T07:44:29.365Z,181.20
2022-09-10T07:46:55.982Z,152.20
2022-09-10T07:49:22.445Z,104.35
2022-09-10T07:51:49.210Z,109.97
2022-09-10T07:54:17.305Z,91.75
2022-09-10T07:56:44.185Z,68.30
2022-09-10T07:59:11.685Z,57.22
2022-09-10T08:01:38.207Z,65.63
2022-09-10T08:04:06.237Z,45.13
2022-09-10T08:06:34.010Z,54.60
2022-09-10T08:09:00.479Z,74.95
2022-09-10T08:11:27.040Z,49.72
2022-09-10T08:13:54.519Z,48.78
2022-09-10T08:16:23.610Z,54.65
2022-09-10T08:18:51.389Z,50.92
2022-09-10T08:21:19.368Z,47.47
2022-09-10T08:23:51.059Z,49.78
2022-09-10T08:26:18.099Z,50.25
2022-09-10T08:28:44.665Z,55.53
2022-09-10T08:31:12.825Z,58.22
2022-09-10T08:33:40.187Z,58.95
2022-09-10T08:36:10.484Z,71.63
2022-09-10T08:38:39.851Z,106.90
2022-09-10T08:41:13.433Z,134.18
2022-09-10T08:43:41.807Z,141.57
2022-09-10T08:46:22.634Z,153.15
2022-09-10T08:49:00.598Z,157.20
2022-09-10T08:51:34.306Z,173.15
2022-09-10T08:54:10.194Z,218.75
2022-09-10T08:56:37.987Z,243.90
2022-09-10T08:59:33.352Z,199.55
2022-09-10T09:02:37.827Z,208.23
2022-09-10T09:05:09.589Z,190.25
2022-09-10T09:07:40.265Z,219.43
2022-09-10T09:10:42.682Z,214.23
2022-09-10T09:13:32.178Z,210.13
2022-09-10T09:16:28.799Z,229.52
2022-09-10T09:19:14.708Z,228.43
2022-09-10T09:21:54.679Z,224.27
2022-09-10T09:24:40.447Z,227.63
2022-09-10T09:27:13.968Z,234.48
2022-09-10T09:29:48.247Z,250.50
2022-09-10T09:32:17.223Z,236.70
2022-09-10T09:34:50.526Z,272.27
2022-09-10T09:37:21.418Z,292.43
2022-09-10T09:39:59.400Z,335.85
2022-09-10T09:42:39.843Z,313.88
2022-09-10T09:45:28.424Z,336.65
2022-09-10T09:47:55.900Z,329.55
2022-09-10T09:50:23.053Z,365.95
2022-09-10T09:52:55.141Z,357.58
2022-09-10T09:55:33.618Z,403.38
2022-09-10T09:58:21.622Z,366.48
2022-09-10T10:01:13.231Z,384.08
2022-09-10T10:03:48.548Z,390.77
2022-09-10T10:06:16.354Z,429.83
2022-09-10T10:08:46.050Z,361.70
2022-09-10T10:11:17.264Z,392.38
2022-09-10T10:13:48.099Z,423.05
2022-09-10T10:16:14.604Z,359.50
2022-09-10T10:18:43.043Z,373.42
2022-09-10T10:21:28.030Z,315.13
2022-09-10T10:23:54.868Z,413.42
2022-09-10T10:26:21.305Z,362.52
2022-09-10T10:28:53.986Z,339.33
2022-09-10T10:31:21.102Z,387.45
2022-09-10T10:34:09.637Z,363.25
2022-09-10T10:37:03.614Z,347.48
2022-09-10T10:39:48.568Z,421.17
2022-09-10T10:42:30.662Z,322.00
2022-09-10T10:45:16.706Z,313.17
2022-09-10T10:48:03.238Z,269.92
2022-09-10T10:51:03.380Z,243.75
2022-09-10T10:54:10.753Z,246.43
2022-09-10T10:56:59.935Z,185.48
2022-09-10T10:59:47.583Z,174.75
2022-09-10T11:02:19.911Z,169.98
2022-09-10T11:04:53.187Z,175.95
2022-09-10T11:07:29.651Z,177.32
2022-09-10T11:10:23.578Z,198.88
2022-09-10T11:13:22.198Z,218.18
2022-09-10T11:15:59.524Z,173.93
2022-09-10T11:18:34.271Z,178.20
2022-09-10T11:21:20.958Z,162.73
2022-09-10T11:24:00.501Z,117.45
2022-09-10T11:26:41.563Z,97.07
2022-09-10T11:29:32.250Z,75.57
2022-09-10T11:32:01.841Z,75.13
2022-09-10T11:34:35.468Z,71.70
2022-09-10T11:37:20.031Z,59.25
2022-09-10T11:39:52.452Z,70.88
2022-09-10T11:42:34.093Z,52.75
2022-09-10T11:45:36.729Z,47.33
2022-09-10T11:48:11.426Z,44.63
2022-09-10T11:50:46.715Z,42.30
2022-09-10T11:53:16.290Z,42.78
2022-09-10T11:56:05.058Z,43.40
2022-09-10T11:59:08.757Z,38.35
2022-09-10T12:02:10.669Z,33.90
2022-09-10T12:05:14.519Z,28.45
2022-09-10T12:07:53.840Z,20.13
2022-09-10T12:10:31.552Z,20.50
2022-09-10T12:12:58.895Z,19.27
2022-09-10T12:15:37.157Z,19.95
2022-09-10T12:18:13.936Z,20.77
2022-09-10T12:20:52.072Z,20.10
2022-09-10T12:23:28.118Z,20.10
2022-09-10T12:26:08.842Z,20.20
2022-09-10T12:28:41.747Z,20.85
2022-09-10T12:31:10.103Z,19.97
2022-09-10T12:34:09.094Z,19.90
2022-09-10T12:36:35.493Z,21.10
2022-09-10T12:39:25.855Z,19.90
2022-09-10T12:41:53.097Z,20.00
2022-09-10T12:44:25.367Z,20.33
2022-09-10T12:47:13.755Z,21.35
2022-09-10T12:50:01.170Z,22.88
2022-09-10T12:52:35.078Z,21.65
2022-09-10T12:55:28.944Z,22.17
2022-09-10T12:58:32.794Z,21.80
2022-09-10T13:01:11.128Z,21.05
2022-09-10T13:03:54.938Z,22.23
2022-09-10T13:06:35.871Z,21.75
2022-09-10T13:09:05.819Z,21.50
2022-09-10T13:11:35.772Z,21.55
2022-09-10T13:14:06.199Z,22.98
2022-09-10T13:16:32.855Z,25.10
2022-09-10T13:19:14.576Z,25.08
2022-09-10T13:21:41.039Z,24.52
2022-09-10T13:24:35.700Z,24.30
2022-09-10T13:27:17.375Z,24.20
2022-09-10T13:29:47.171Z,24.42
2022-09-10T13:32:37.543Z,23.25
2022-09-10T13:35:17.076Z,22.92
2022-09-10T13:37:59.365Z,23.33
2022-09-10T13:40:38.693Z,25.38
2022-09-10T13:43:05.481Z,27.50
2022-09-10T13:45:46.852Z,30.98
2022-09-10T13:48:23.859Z,29.90
2022-09-10T13:51:15.302Z,30.73
2022-09-10T13:53:46.956Z,27.67
2022-09-10T13:56:19.197Z,26.90
2022-09-10T13:58:52.153Z,25.33
2022-09-10T14:01:18.779Z,24.88
2022-09-10T14:03:45.501Z,24.70
2022-09-10T14:06:18.795Z,27.77
2022-09-10T14:08:50.514Z,27.70
2022-09-10T14:11:25.194Z,30.52
2022-09-10T14:14:06.352Z,32.25
2022-09-10T14:16:55.410Z,32.72
2022-09-10T14:19:21.851Z,32.25
2022-09-10T14:21:50.074Z,34.55
2022-09-10T14:24:30.617Z,33.42
2022-09-10T14:27:15.634Z,32.72
2022-09-10T14:29:42.963Z,34.08
2022-09-10T14:32:26.495Z,31.77
2022-09-10T14:34:53.036Z,30.88
2022-09-10T14:37:39.562Z,31.33
2022-09-10T14:40:20.875Z,30.83
2022-09-10T14:42:49.490Z,30.20
2022-09-10T14:45:42.511Z,31.42
2022-09-10T14:48:29.518Z,30.70
2022-09-10T14:51:12.827Z,28.90
2022-09-10T14:53:40.893Z,29.13
2022-09-10T14:56:22.350Z,28.40
2022-09-10T14:59:05.955Z,26.83
2022-09-10T15:01:32.717Z,25.08
2022-09-10T15:04:02.074Z,27.40
2022-09-10T15:06:28.730Z,27.67
2022-09-10T15:08:58.330Z,26.58
2022-09-10T15:11:28.179Z,26.63
2022-09-10T15:13:56.112Z,27.73
2022-09-10T15:16:25.826Z,29.50
2022-09-10T15:18:52.313Z,29.55
2022-09-10T15:21:19.394Z,28.75
2022-09-10T15:23:48.256Z,27.30
2022-09-10T15:26:15.215Z,30.27
2022-09-10T15:28:42.054Z,30.05
2022-09-10T15:31:09.244Z,29.92
2022-09-10T15:33:36.179Z,29.30
2022-09-10T15:36:03.340Z,29.55
2022-09-10T15:38:29.914Z,27.65
2022-09-10T15:41:08.347Z,27.70
2022-09-10T15:43:38.833Z,27.30
2022-09-10T15:46:06.611Z,26.17
2022-09-10T15:48:33.654Z,23.77
2022-09-10T15:51:02.767Z,21.98
2022-09-10T15:53:32.838Z,22.02
2022-09-10T15:56:05.393Z,21.65
2022-09-10T15:58:32.002Z,21.08
2022-09-10T16:01:07.488Z,22.77
2022-09-10T16:03:34.835Z,24.42
2022-09-10T16:06:03.271Z,26.83
2022-09-10T16:08:30.731Z,29.30
2022-09-10T16:10:57.911Z,30.55
2022-09-10T16:13:26.004Z,30.17
2022-09-10T16:16:03.363Z,27.60
2022-09-10T16:18:31.776Z,27.40
2022-09-10T16:21:18.485Z,25.52
2022-09-10T16:23:49.227Z,25.75
2022-09-10T16:26:19.906Z,26.60
2022-09-10T16:29:14.107Z,27.45
2022-09-10T16:31:41.075Z,28.13
2022-09-10T16:34:10.939Z,29.95
2022-09-10T16:36:39.202Z,30.77
2022-09-10T16:39:12.306Z,31.25
2022-09-10T16:41:40.355Z,30.40
2022-09-10T16:44:07.222Z,31.10
2022-09-10T16:46:34.366Z,31.67
2022-09-10T16:49:01.549Z,28.80
2022-09-10T16:51:28.870Z,26.92
2022-09-10T16:54:06.363Z,28.05
2022-09-10T16:56:40.013Z,25.65
2022-09-10T16:59:08.818Z,25.85
2022-09-10T17:01:36.642Z,25.02
2022-09-10T17:04:04.662Z,25.23
2022-09-10T17:06:31.795Z,29.38
2022-09-10T17:09:00.590Z,33.33
2022-09-10T17:11:32.738Z,36.47
2022-09-10T17:14:03.057Z,42.97
2022-09-10T17:16:37.754Z,62.53
2022-09-10T17:19:16.231Z,92.80
2022-09-10T17:21:44.928Z,70.80
2022-09-10T17:24:13.214Z,84.25
2022-09-10T17:26:41.283Z,91.55
2022-09-10T17:29:18.901Z,95.82
2022-09-10T17:31:49.383Z,100.70
2022-09-10T17:34:16.518Z,109.57
2022-09-10T17:36:45.417Z,113.00
2022-09-10T17:39:13.000Z,129.73
2022-09-10T17:41:40.491Z,136.70
2022-09-10T17:44:08.133Z,146.98
2022-09-10T17:46:36.075Z,193.27
2022-09-10T17:49:03.832Z,182.63
2022-09-10T17:51:32.686Z,194.80
2022-09-10T17:53:59.446Z,204.77
2022-09-10T17:56:27.019Z,194.15
2022-09-10T17:58:58.468Z,206.25
2022-09-10T18:01:27.586Z,255.70
2022-09-10T18:03:54.815Z,247.52
2022-09-10T18:06:22.151Z,252.30
2022-09-10T18:08:50.428Z,255.32
2022-09-10T18:11:22.714Z,265.42
2022-09-10T18:13:52.146Z,276.15
2022-09-10T18:16:22.271Z,282.38
2022-09-10T18:19:01.037Z,288.48
2022-09-10T18:21:31.310Z,297.75
2022-09-10T18:24:00.527Z,301.90
2022-09-10T18:26:29.361Z,318.58
2022-09-10T18:28:57.600Z,344.85
2022-09-10T18:31:25.029Z,333.05
2022-09-10T18:33:53.576Z,351.30
2022-09-10T18:36:20.586Z,378.27
2022-09-10T18:38:47.421Z,362.27
2022-09-10T18:41:36.010Z,396.75
2022-09-10T18:44:04.408Z,418.77
2022-09-10T18:46:32.987Z,453.80
2022-09-10T18:49:00.026Z,478.95
2022-09-10T18:51:28.453Z,517.38
2022-09-10T18:54:00.312Z,549.50
2022-09-10T18:56:30.146Z,591.97
2022-09-10T18:59:03.159Z,626.08
2022-09-10T19:01:31.174Z,644.70
2022-09-10T19:03:58.320Z,659.55
2022-09-10T19:06:36.608Z,658.75
2022-09-10T19:09:09.496Z,657.65
2022-09-10T19:11:39.339Z,623.10
2022-09-10T19:14:08.689Z,606.10
2022-09-10T19:16:36.219Z,591.95
2022-09-10T19:19:05.714Z,569.78
2022-09-10T19:21:35.310Z,565.60
2022-09-10T19:24:03.705Z,562.80
2022-09-10T19:26:33.295Z,546.63
2022-09-10T19:29:01.677Z,540.40
2022-09-10T19:31:30.078Z,546.58
2022-09-10T19:34:03.014Z,549.45
2022-09-10T19:36:31.711Z,538.60
2022-09-10T19:38:59.586Z,546.40
2022-09-10T19:41:26.253Z,535.25
2022-09-10T19:43:53.910Z,558.15
2022-09-10T19:46:22.561Z,552.10
2022-09-10T19:48:49.384Z,541.25
2022-09-10T19:51:20.117Z,552.58
2022-09-10T19:53:48.149Z,543.35
2022-09-10T19:56:20.948Z,562.08
2022-09-10T19:58:49.983Z,518.88
2022-09-10T20:01:19.794Z,516.58
2022-09-10T20:03:48.218Z,518.90
2022-09-10T20:06:18.334Z,529.13
2022-09-10T20:08:47.239Z,527.90
2022-09-10T20:11:16.823Z,516.65
2022-09-10T20:13:45.162Z,521.63
2022-09-10T20:16:13.000Z,550.38
2022-09-10T20:18:39.935Z,556.38
2022-09-10T20:21:21.078Z,552.33
2022-09-10T20:23:50.987Z,538.28
2022-09-10T20:26:22.550Z,570.85
2022-09-10T20:28:55.710Z,498.02
2022-09-10T20:31:24.003Z,497.23
2022-09-10T20:33:55.015Z,504.45
2022-09-10T20:36:22.857Z,487.02
2022-09-10T20:38:50.546Z,440.83
2022-09-10T20:41:17.237Z,448.50
2022-09-10T20:43:43.798Z,457.77
2022-09-10T20:46:15.927Z,469.52
2022-09-10T20:48:48.789Z,450.33
2022-09-10T20:51:20.501Z,506.85
2022-09-10T20:53:47.967Z,457.02
2022-09-10T20:56:18.066Z,531.03
2022-09-10T20:58:45.454Z,400.20
2022-09-10T21:01:17.414Z,470.83
2022-09-10T21:03:43.974Z,459.23
2022-09-10T21:06:11.894Z,413.88
2022-09-10T21:08:40.585Z,380.55
2022-09-10T21:11:16.113Z,400.73
2022-09-10T21:13:45.180Z,431.60
2022-09-10T21:16:14.639Z,385.30
2022-09-10T21:18:42.348Z,415.13
2022-09-10T21:21:14.316Z,375.83
2022-09-10T21:23:45.625Z,357.58
2022-09-10T21:26:13.582Z,335.38
2022-09-10T21:28:41.570Z,351.83
2022-09-10T21:31:09.525Z,351.20
2022-09-10T21:33:36.594Z,341.17
2022-09-10T21:36:06.407Z,341.15
2022-09-10T21:38:35.138Z,332.15
2022-09-10T21:41:03.692Z,347.70
2022-09-10T21:43:37.806Z,346.02
2022-09-10T21:48:35.846Z,304.65
2022-09-10T21:51:05.792Z,308.48
2022-09-10T21:53:33.494Z,323.30
2022-09-10T21:56:01.515Z,301.25
2022-09-10T21:58:30.394Z,308.23
2022-09-10T22:00:58.560Z,300.85
2022-09-10T22:03:26.409Z,289.40
2022-09-10T22:05:52.948Z,312.38
2022-09-10T22:08:19.484Z,302.45
2022-09-10T22:10:46.374Z,303.05
2022-09-10T22:13:12.865Z,306.00
2022-09-10T22:15:40.503Z,291.15
2022-09-10T22:18:08.300Z,289.50
2022-09-10T22:20:36.322Z,287.27
2022-09-10T22:23:03.855Z,269.95
2022-09-10T22:25:31.206Z,266.95
2022-09-10T22:27:58.297Z,276.67
2022-09-10T22:30:27.810Z,269.08
2022-09-10T22:32:57.967Z,257.00
2022-09-10T22:35:26.156Z,261.10
2022-09-10T22:37:56.745Z,264.30
2022-09-10T22:40:24.464Z,245.27
2022-09-10T22:42:51.682Z,241.63
2022-09-10T22:45:20.749Z,257.67
2022-09-10T22:47:47.994Z,267.35
2022-09-10T22:50:15.286Z,282.13
2022-09-10T22:52:43.657Z,264.05
2022-09-10T22:55:10.434Z,271.75
2022-09-10T22:57:38.525Z,256.90
2022-09-10T23:00:06.122Z,273.10
2022-09-10T23:02:32.606Z,276.52
2022-09-10T23:04:59.913Z,262.13
2022-09-10T23:07:26.410Z,259.95
2022-09-10T23:09:52.897Z,244.85
2022-09-10T23:12:22.065Z,244.25
2022-09-10T23:14:48.619Z,239.48
2022-09-10T23:17:18.459Z,231.00
2022-09-10T23:19:47.162Z,227.40
2022-09-10T23:22:14.031Z,217.10
2022-09-10T23:24:40.598Z,210.65
2022-09-10T23:27:07.078Z,210.25
2022-09-10T23:29:33.581Z,202.25
2022-09-10T23:32:00.083Z,187.82
2022-09-10T23:34:26.615Z,185.30
2022-09-10T23:36:53.806Z,171.35
2022-09-10T23:39:22.714Z,172.20
2022-09-10T23:41:50.833Z,154.00
2022-09-10T23:44:17.674Z,164.02
2022-09-10T23:46:48.073Z,152.40
2022-09-10T23:49:14.954Z,137.40
2022-09-10T23:51:41.698Z,130.45
2022-09-10T23:54:09.991Z,129.45
2022-09-10T23:56:37.185Z,132.07
2022-09-10T23:59:03.833Z,116.05
